createdAt,value
2018-11-02T00:01:25.197Z,9.63
2018-11-02T00:03:53.718Z,9.37
2018-11-02T00:06:22.130Z,9.10
2018-11-02T00:08:50.275Z,10.00
2018-11-02T00:11:19.484Z,9.67
2018-11-02T00:13:47.765Z,9.00
2018-11-02T00:16:15.948Z,9.77
2018-11-02T00:18:44.101Z,9.37
2018-11-02T00:21:12.257Z,9.10
2018-11-02T00:23:40.499Z,9.93
2018-11-02T00:26:08.684Z,9.33
2018-11-02T00:28:36.792Z,8.90
2018-11-02T00:31:05.206Z,10.83
2018-11-02T00:33:33.371Z,8.93
2018-11-02T00:36:01.502Z,9.07
2018-11-02T00:38:29.640Z,10.67
2018-11-02T00:40:57.789Z,10.03
2018-11-02T00:43:25.896Z,9.37
2018-11-02T00:45:54.058Z,9.30
2018-11-02T00:48:22.238Z,9.33
2018-11-02T00:50:50.529Z,10.10
2018-11-02T00:53:18.689Z,10.27
2018-11-02T00:55:46.934Z,9.60
2018-11-02T00:58:15.205Z,10.10
2018-11-02T01:00:43.348Z,10.07
2018-11-02T01:03:11.544Z,10.03
2018-11-02T01:05:40.197Z,9.33
2018-11-02T01:08:08.358Z,10.40
2018-11-02T01:10:36.615Z,9.80
2018-11-02T01:13:04.804Z,9.50
2018-11-02T01:15:32.975Z,9.20
2018-11-02T01:18:01.125Z,9.50
2018-11-02T01:20:29.277Z,9.50
2018-11-02T01:22:57.389Z,9.70
2018-11-02T01:25:25.544Z,9.27
2018-11-02T01:27:53.697Z,9.90
2018-11-02T01:30:21.843Z,9.90
2018-11-02T01:32:49.971Z,9.03
2018-11-02T01:35:18.067Z,8.83
2018-11-02T01:37:46.229Z,9.13
2018-11-02T01:40:14.399Z,10.00
2018-11-02T01:42:42.544Z,9.37
2018-11-02T01:45:10.670Z,10.40
2018-11-02T01:47:38.873Z,10.47
2018-11-02T01:50:07.294Z,10.73
2018-11-02T01:52:35.438Z,10.63
2018-11-02T01:55:03.600Z,10.87
2018-11-02T01:57:31.743Z,10.03
2018-11-02T01:59:59.902Z,10.70
2018-11-02T02:02:28.063Z,9.30
2018-11-02T02:04:56.257Z,9.80
2018-11-02T02:07:24.416Z,10.37
2018-11-02T02:09:52.546Z,10.77
2018-11-02T02:12:20.695Z,10.07
2018-11-02T02:14:48.804Z,9.87
2018-11-02T02:17:17.039Z,9.57
2018-11-02T02:19:45.235Z,10.60
2018-11-02T02:22:13.362Z,10.07
2018-11-02T02:24:41.527Z,9.93
2018-11-02T02:27:09.703Z,10.03
2018-11-02T02:29:37.842Z,9.80
2018-11-02T02:32:06.009Z,9.90
2018-11-02T02:34:34.166Z,10.00
2018-11-02T02:37:02.425Z,9.27
2018-11-02T02:39:30.593Z,10.43
2018-11-02T02:41:58.744Z,10.87
2018-11-02T02:44:26.895Z,10.73
2018-11-02T02:46:55.083Z,10.30
2018-11-02T02:49:23.221Z,10.00
2018-11-02T02:51:51.600Z,9.57
2018-11-02T02:54:19.758Z,9.60
2018-11-02T02:56:54.777Z,9.90
2018-11-02T02:59:22.881Z,10.40
2018-11-02T03:01:51.003Z,9.87
2018-11-02T03:04:19.213Z,10.67
2018-11-02T03:06:47.469Z,10.27
2018-11-02T03:09:15.663Z,11.10
2018-11-02T03:11:43.790Z,11.23
2018-11-02T03:14:12.009Z,10.83
2018-11-02T03:16:40.159Z,9.87
2018-11-02T03:19:08.297Z,9.90
2018-11-02T03:21:36.432Z,10.17
2018-11-02T03:24:04.567Z,10.10
2018-11-02T03:26:32.731Z,9.90
2018-11-02T03:29:00.871Z,11.30
2018-11-02T03:31:29.025Z,10.90
2018-11-02T03:33:57.181Z,10.33
2018-11-02T03:36:25.361Z,10.63
2018-11-02T03:38:53.529Z,10.30
2018-11-02T03:41:21.644Z,10.37
2018-11-02T03:43:50.007Z,9.85
2018-11-02T03:46:18.220Z,10.57
2018-11-02T03:48:46.391Z,10.80
2018-11-02T03:51:14.469Z,12.47
2018-11-02T03:53:42.570Z,10.10
2018-11-02T03:56:10.713Z,11.30
2018-11-02T03:58:38.900Z,10.97
2018-11-02T04:01:07.229Z,10.10
2018-11-02T04:03:35.377Z,10.90
2018-11-02T04:06:03.480Z,11.00
2018-11-02T04:08:31.683Z,9.83
2018-11-02T04:10:59.776Z,10.10
2018-11-02T04:13:27.983Z,10.93
2018-11-02T04:15:56.084Z,10.63
2018-11-02T04:18:24.200Z,10.77
2018-11-02T04:20:52.304Z,9.90
2018-11-02T04:23:20.473Z,10.80
2018-11-02T04:25:48.669Z,11.20
2018-11-02T04:28:19.767Z,9.83
2018-11-02T04:30:47.933Z,10.13
2018-11-02T04:33:16.021Z,10.73
2018-11-02T04:35:44.144Z,10.17
2018-11-02T04:38:12.496Z,10.93
2018-11-02T04:40:40.625Z,9.40
2018-11-02T04:43:08.768Z,9.87
2018-11-02T04:45:39.906Z,9.70
2018-11-02T04:48:09.781Z,8.67
2018-11-02T04:50:38.204Z,9.37
2018-11-02T04:53:06.539Z,9.00
2018-11-02T04:55:34.867Z,9.53
2018-11-02T04:58:02.992Z,10.03
2018-11-02T05:00:31.504Z,9.73
2018-11-02T05:06:13.828Z,9.93
2018-11-02T05:08:42.272Z,9.60
2018-11-02T05:11:10.416Z,9.03
2018-11-02T05:13:38.484Z,10.03
2018-11-02T05:16:06.956Z,9.37
2018-11-02T05:18:35.219Z,9.83
2018-11-02T05:21:03.416Z,10.60
2018-11-02T05:23:31.479Z,10.03
2018-11-02T05:25:59.768Z,11.00
2018-11-02T05:28:27.897Z,9.03
2018-11-02T05:30:56.014Z,10.60
2018-11-02T05:33:24.316Z,11.73
2018-11-02T05:35:52.428Z,10.97
2018-11-02T05:38:20.561Z,13.77
2018-11-02T05:40:48.720Z,11.10
2018-11-02T05:43:16.872Z,10.40
2018-11-02T05:45:44.988Z,10.80
2018-11-02T05:48:13.284Z,11.07
2018-11-02T05:50:41.374Z,11.12
2018-11-02T05:53:09.562Z,10.67
2018-11-02T05:55:37.712Z,11.97
2018-11-02T05:58:05.868Z,11.33
2018-11-02T06:00:34.030Z,11.65
2018-11-02T06:03:02.148Z,9.73
2018-11-02T06:05:30.402Z,11.80
2018-11-02T06:07:58.674Z,11.25
2018-11-02T06:10:26.784Z,10.50
2018-11-02T06:12:54.920Z,9.73
2018-11-02T06:15:23.052Z,10.23
2018-11-02T06:17:51.181Z,10.30
2018-11-02T06:20:19.310Z,11.37
2018-11-02T06:22:47.484Z,10.70
2018-11-02T06:25:15.629Z,11.00
2018-11-02T06:27:43.793Z,9.93
2018-11-02T06:30:11.938Z,11.18
2018-11-02T06:32:40.169Z,10.27
2018-11-02T06:35:08.712Z,11.17
2018-11-02T06:37:36.859Z,10.95
2018-11-02T06:40:05.108Z,10.98
2018-11-02T06:42:33.344Z,11.50
2018-11-02T06:45:01.663Z,12.78
2018-11-02T06:47:29.789Z,10.83
2018-11-02T06:49:57.934Z,11.30
2018-11-02T06:52:26.113Z,10.87
2018-11-02T06:54:54.596Z,11.17
2018-11-02T06:57:22.722Z,12.83
2018-11-02T06:59:51.001Z,12.47
2018-11-02T07:02:19.003Z,10.90
2018-11-02T07:04:47.130Z,11.10
2018-11-02T07:07:15.429Z,11.83
2018-11-02T07:09:43.437Z,10.47
2018-11-02T07:12:11.643Z,12.00
2018-11-02T07:14:39.800Z,11.33
2018-11-02T07:17:07.969Z,9.97
2018-11-02T07:19:36.178Z,10.80
2018-11-02T07:22:04.428Z,9.77
2018-11-02T07:24:32.565Z,9.83
2018-11-02T07:27:00.691Z,8.73
2018-11-02T07:29:28.797Z,8.43
2018-11-02T07:31:56.953Z,8.20
2018-11-02T07:34:25.099Z,7.90
2018-11-02T07:36:53.252Z,9.03
2018-11-02T07:39:21.398Z,8.83
2018-11-02T07:41:49.496Z,7.97
2018-11-02T07:44:17.696Z,8.43
2018-11-02T07:46:45.860Z,8.17
2018-11-02T07:49:14.043Z,8.07
2018-11-02T07:51:42.147Z,9.27
2018-11-02T07:54:10.314Z,7.10
2018-11-02T07:56:38.495Z,7.90
2018-11-02T07:59:06.667Z,9.30
2018-11-02T08:01:34.932Z,8.00
2018-11-02T08:04:03.046Z,8.40
2018-11-02T08:06:31.130Z,8.37
2018-11-02T08:08:59.284Z,6.67
2018-11-02T08:11:27.471Z,7.20
2018-11-02T08:13:55.578Z,9.20
2018-11-02T08:16:23.690Z,7.77
2018-11-02T08:18:51.859Z,7.73
2018-11-02T08:21:19.953Z,8.20
2018-11-02T08:23:48.064Z,8.33
2018-11-02T08:26:19.181Z,7.70
2018-11-02T08:28:47.289Z,7.47
2018-11-02T08:31:15.425Z,6.93
2018-11-02T08:33:43.595Z,7.97
2018-11-02T08:36:11.752Z,7.30
2018-11-02T08:38:39.902Z,8.00
2018-11-02T08:41:08.058Z,9.47
2018-11-02T08:43:36.204Z,7.20
2018-11-02T08:46:04.411Z,7.87
2018-11-02T08:48:32.504Z,8.63
2018-11-02T08:51:00.614Z,6.93
2018-11-02T08:53:28.829Z,7.57
2018-11-02T08:55:56.966Z,6.90
2018-11-02T08:58:25.372Z,7.17
2018-11-02T09:00:53.472Z,9.40
2018-11-02T09:03:21.596Z,7.00
2018-11-02T09:05:49.745Z,8.13
2018-11-02T09:08:17.880Z,7.37
2018-11-02T09:10:46.054Z,6.77
2018-11-02T09:13:14.368Z,6.60
2018-11-02T09:15:42.599Z,7.83
2018-11-02T09:18:10.724Z,7.87
2018-11-02T09:20:38.933Z,6.40
2018-11-02T09:23:07.059Z,6.10
2018-11-02T09:25:38.309Z,6.93
2018-11-02T09:28:06.591Z,6.97
2018-11-02T09:30:34.634Z,6.03
2018-11-02T09:33:02.774Z,5.93
2018-11-02T09:35:30.898Z,5.90
2018-11-02T09:37:59.043Z,6.53
2018-11-02T09:40:27.237Z,8.00
2018-11-02T09:42:55.318Z,7.37
2018-11-02T09:45:23.424Z,6.20
2018-11-02T09:47:51.618Z,7.00
2018-11-02T09:50:19.745Z,6.20
2018-11-02T09:52:47.912Z,5.67
2018-11-02T09:55:16.660Z,5.73
2018-11-02T09:57:46.127Z,5.13
2018-11-02T10:00:14.814Z,5.77
2018-11-02T10:02:43.167Z,5.33
2018-11-02T10:05:12.352Z,6.40
2018-11-02T10:07:41.710Z,5.73
2018-11-02T10:10:11.312Z,6.73
2018-11-02T10:12:39.538Z,6.97
2018-11-02T10:15:10.374Z,7.57
2018-11-02T10:17:38.528Z,6.83
2018-11-02T10:20:07.304Z,6.77
2018-11-02T10:22:35.509Z,7.20
2018-11-02T10:25:03.813Z,4.83
2018-11-02T10:27:32.012Z,5.80
2018-11-02T10:30:00.212Z,7.73
2018-11-02T10:32:28.328Z,5.33
2018-11-02T10:34:56.455Z,7.77
2018-11-02T10:37:24.579Z,4.40
2018-11-02T10:39:52.797Z,6.33
2018-11-02T10:42:20.974Z,5.03
2018-11-02T10:44:49.251Z,5.00
2018-11-02T10:47:17.431Z,5.83
2018-11-02T10:49:45.622Z,5.30
2018-11-02T10:52:13.785Z,5.87
2018-11-02T10:54:41.962Z,6.10
2018-11-02T10:57:10.110Z,5.57
2018-11-02T10:59:38.241Z,5.90
2018-11-02T11:02:08.510Z,5.37
2018-11-02T11:04:37.487Z,5.80
2018-11-02T11:07:06.185Z,4.73
2018-11-02T11:09:34.362Z,5.60
2018-11-02T11:12:02.576Z,4.77
2018-11-02T11:14:31.101Z,5.00
2018-11-02T11:16:59.302Z,4.80
2018-11-02T11:19:27.551Z,5.27
2018-11-02T11:21:55.770Z,4.17
2018-11-02T11:24:23.934Z,4.13
2018-11-02T11:26:52.088Z,4.87
2018-11-02T11:29:20.387Z,5.57
2018-11-02T11:31:48.445Z,5.30
2018-11-02T11:34:16.633Z,4.50
2018-11-02T11:36:44.816Z,5.10
2018-11-02T11:39:14.008Z,4.17
2018-11-02T11:41:42.184Z,5.90
2018-11-02T11:44:10.883Z,4.33
2018-11-02T11:46:39.172Z,4.83
2018-11-02T11:49:08.313Z,4.50
2018-11-02T11:51:36.437Z,4.40
2018-11-02T11:54:04.700Z,5.00
2018-11-02T11:56:32.998Z,5.10
2018-11-02T11:59:01.367Z,4.53
2018-11-02T12:01:29.508Z,4.70
2018-11-02T12:03:57.735Z,3.73
2018-11-02T12:06:25.992Z,5.07
2018-11-02T12:08:54.174Z,4.50
2018-11-02T12:11:22.326Z,4.70
2018-11-02T12:13:50.504Z,4.27
2018-11-02T12:16:18.685Z,5.00
2018-11-02T12:18:53.687Z,3.83
2018-11-02T12:21:21.886Z,4.67
2018-11-02T12:23:50.077Z,4.23
2018-11-02T12:26:18.249Z,4.50
2018-11-02T12:28:46.515Z,6.60
2018-11-02T12:31:14.629Z,4.90
2018-11-02T12:33:42.770Z,4.87
2018-11-02T12:36:10.943Z,4.97
2018-11-02T12:38:39.166Z,4.30
2018-11-02T12:41:07.299Z,5.10
2018-11-02T12:43:35.646Z,7.43
2018-11-02T12:46:03.720Z,6.50
2018-11-02T12:48:31.985Z,4.97
2018-11-02T12:51:00.074Z,4.20
2018-11-02T12:53:28.252Z,4.30
2018-11-02T12:55:56.492Z,4.80
2018-11-02T12:58:24.724Z,4.10
2018-11-02T13:00:52.891Z,4.80
2018-11-02T13:03:21.063Z,3.83
2018-11-02T13:05:49.219Z,4.10
2018-11-02T13:08:17.413Z,4.50
2018-11-02T13:10:45.589Z,5.07
2018-11-02T13:13:13.750Z,4.57
2018-11-02T13:15:42.008Z,3.93
2018-11-02T13:18:10.120Z,8.87
2018-11-02T13:20:38.301Z,5.93
2018-11-02T13:23:06.486Z,3.27
2018-11-02T13:25:34.637Z,3.70
2018-11-02T13:28:02.851Z,4.13
2018-11-02T13:30:31.144Z,5.07
2018-11-02T13:32:59.233Z,3.90
2018-11-02T13:35:27.373Z,5.13
2018-11-02T13:37:55.546Z,5.73
2018-11-02T13:40:23.720Z,3.70
2018-11-02T13:42:51.882Z,4.10
2018-11-02T13:45:20.261Z,3.90
2018-11-02T13:47:48.525Z,6.10
2018-11-02T13:50:16.822Z,4.50
2018-11-02T13:52:45.275Z,5.63
2018-11-02T13:55:13.869Z,3.60
2018-11-02T13:57:42.098Z,3.80
2018-11-02T14:00:12.362Z,4.00
2018-11-02T14:02:40.520Z,3.80
2018-11-02T14:05:09.875Z,5.50
2018-11-02T14:07:38.029Z,4.50
2018-11-02T14:10:06.806Z,3.70
2018-11-02T14:12:34.984Z,4.20
2018-11-02T14:15:03.219Z,5.00
2018-11-02T14:17:31.378Z,5.73
2018-11-02T14:19:59.550Z,3.47
2018-11-02T14:22:27.755Z,4.13
2018-11-02T14:24:55.989Z,4.37
2018-11-02T14:27:24.204Z,5.47
2018-11-02T14:29:52.417Z,4.23
2018-11-02T14:32:20.663Z,3.77
2018-11-02T14:34:48.803Z,3.57
2018-11-02T14:37:17.021Z,3.50
2018-11-02T14:39:45.208Z,3.90
2018-11-02T14:42:13.437Z,3.67
2018-11-02T14:44:41.665Z,3.90
2018-11-02T14:47:09.829Z,3.97
2018-11-02T14:49:38.091Z,3.97
2018-11-02T14:52:06.431Z,4.27
2018-11-02T14:54:34.619Z,4.27
2018-11-02T14:57:02.862Z,4.63
2018-11-02T14:59:31.175Z,3.90
2018-11-02T15:01:59.384Z,3.80
2018-11-02T15:04:27.520Z,4.37
2018-11-02T15:06:55.781Z,4.53
2018-11-02T15:09:24.035Z,5.13
2018-11-02T15:11:52.201Z,9.10
2018-11-02T15:14:20.364Z,7.50
2018-11-02T15:16:48.536Z,6.00
2018-11-02T15:19:16.721Z,7.50
2018-11-02T15:21:51.299Z,4.77
2018-11-02T15:24:19.491Z,5.40
2018-11-02T15:26:47.631Z,5.90
2018-11-02T15:29:15.840Z,6.10
2018-11-02T15:31:43.985Z,7.10
2018-11-02T15:34:12.169Z,6.83
2018-11-02T15:36:40.452Z,9.17
2018-11-02T15:39:10.582Z,7.13
2018-11-02T15:41:38.875Z,8.77
2018-11-02T15:44:07.196Z,7.37
2018-11-02T15:46:35.643Z,11.17
2018-11-02T15:49:03.840Z,8.73
2018-11-02T15:51:31.999Z,10.13
2018-11-02T15:54:00.278Z,9.37
2018-11-02T15:56:28.518Z,10.37
2018-11-02T15:58:56.789Z,8.57
2018-11-02T16:01:25.230Z,9.00
2018-11-02T16:03:53.474Z,9.67
2018-11-02T16:06:21.648Z,9.63
2018-11-02T16:08:49.916Z,9.37
2018-11-02T16:11:18.136Z,10.43
2018-11-02T16:13:46.576Z,9.17
2018-11-02T16:16:14.713Z,10.37
2018-11-02T16:18:43.090Z,9.50
2018-11-02T16:21:11.335Z,9.97
2018-11-02T16:23:39.501Z,8.67
2018-11-02T16:26:08.065Z,9.57
2018-11-02T16:28:36.248Z,10.37
2018-11-02T16:31:04.571Z,10.50
2018-11-02T16:33:32.769Z,9.63
2018-11-02T16:36:00.924Z,11.27
2018-11-02T16:38:29.185Z,11.53
2018-11-02T16:40:57.355Z,12.60
2018-11-02T16:43:25.656Z,10.97
2018-11-02T16:45:53.885Z,10.33
2018-11-02T16:48:22.035Z,10.70
2018-11-02T16:50:50.180Z,10.70
2018-11-02T16:53:18.434Z,13.97
2018-11-02T16:55:46.705Z,12.70
2018-11-02T16:58:14.979Z,13.00
2018-11-02T17:00:43.127Z,14.13
2018-11-02T17:03:11.258Z,11.43
2018-11-02T17:05:39.492Z,8.57
2018-11-02T17:08:07.740Z,9.40
2018-11-02T17:10:36.011Z,13.50
2018-11-02T17:13:04.475Z,11.80
2018-11-02T17:15:32.729Z,13.00
2018-11-02T17:18:00.965Z,11.03
2018-11-02T17:20:29.197Z,10.77
2018-11-02T17:22:57.419Z,11.37
2018-11-02T17:25:25.654Z,9.37
2018-11-02T17:27:53.874Z,10.17
2018-11-02T17:30:22.053Z,8.73
2018-11-02T17:32:50.640Z,10.83
2018-11-02T17:35:18.883Z,11.90
2018-11-02T17:37:47.081Z,23.60
2018-11-02T17:40:15.912Z,11.13
2018-11-02T17:42:44.653Z,13.00
2018-11-02T17:45:12.929Z,12.37
2018-11-02T17:47:42.104Z,11.90
2018-11-02T17:50:11.454Z,12.00
2018-11-02T17:52:39.691Z,13.13
2018-11-02T17:55:07.951Z,17.67
2018-11-02T17:57:36.123Z,14.43
2018-11-02T18:00:04.824Z,11.60
2018-11-02T18:02:35.582Z,25.23
2018-11-02T18:05:03.848Z,15.53
2018-11-02T18:07:32.077Z,13.43
2018-11-02T18:10:01.290Z,14.83
2018-11-02T18:12:29.493Z,14.13
2018-11-02T18:14:57.767Z,14.30
2018-11-02T18:17:25.930Z,14.60
2018-11-02T18:19:54.129Z,14.20
2018-11-02T18:22:22.394Z,15.57
2018-11-02T18:24:50.557Z,15.00
2018-11-02T18:27:18.738Z,15.90
2018-11-02T18:29:46.951Z,18.13
2018-11-02T18:32:15.184Z,16.83
2018-11-02T18:34:43.536Z,16.37
2018-11-02T18:37:11.747Z,16.97
2018-11-02T18:39:40.032Z,15.90
2018-11-02T18:42:08.493Z,17.97
2018-11-02T18:44:36.662Z,17.07
2018-11-02T18:47:06.308Z,17.40
2018-11-02T18:49:34.741Z,16.70
2018-11-02T18:52:03.376Z,17.10
2018-11-02T18:54:32.015Z,14.23
2018-11-02T18:57:00.360Z,16.10
2018-11-02T18:59:28.617Z,16.50
2018-11-02T19:01:57.304Z,16.17
2018-11-02T19:04:25.716Z,16.13
2018-11-02T19:06:54.160Z,15.47
2018-11-02T19:09:22.428Z,15.47
2018-11-02T19:11:54.975Z,16.60
2018-11-02T19:14:23.353Z,16.47
2018-11-02T19:16:51.971Z,16.50
2018-11-02T19:19:20.376Z,18.90
2018-11-02T19:21:48.996Z,16.17
2018-11-02T19:24:17.224Z,15.53
2018-11-02T19:26:45.727Z,15.50
2018-11-02T19:29:14.232Z,17.87
2018-11-02T19:31:42.655Z,24.40
2018-11-02T19:34:15.346Z,17.83
2018-11-02T19:36:43.541Z,16.60
2018-11-02T19:39:12.064Z,16.27
2018-11-02T19:41:40.383Z,16.57
2018-11-02T19:44:08.591Z,16.37
2018-11-02T19:46:36.898Z,16.80
2018-11-02T19:49:05.459Z,18.57
2018-11-02T19:51:34.315Z,19.70
2018-11-02T19:54:02.655Z,17.47
2018-11-02T19:56:30.944Z,17.73
2018-11-02T19:58:59.211Z,19.97
2018-11-02T20:01:27.482Z,16.80
2018-11-02T20:03:55.965Z,18.37
2018-11-02T20:06:24.256Z,16.83
2018-11-02T20:08:52.572Z,16.03
2018-11-02T20:11:20.816Z,18.77
2018-11-02T20:13:49.415Z,19.83
2018-11-02T20:16:17.660Z,19.93
2018-11-02T20:18:45.881Z,17.77
2018-11-02T20:21:14.109Z,17.20
2018-11-02T20:23:42.292Z,16.93
2018-11-02T20:26:10.517Z,17.33
2018-11-02T20:28:38.772Z,14.57
2018-11-02T20:31:06.992Z,14.90
2018-11-02T20:33:35.185Z,15.73
2018-11-02T20:36:03.383Z,17.87
2018-11-02T20:38:31.622Z,16.87
2018-11-02T20:40:59.907Z,18.33
2018-11-02T20:43:28.127Z,16.93
2018-11-02T20:45:56.345Z,17.70
2018-11-02T20:48:24.564Z,17.33
2018-11-02T20:50:52.796Z,16.63
2018-11-02T20:53:21.160Z,16.63
2018-11-02T20:55:49.395Z,17.97
2018-11-02T20:58:17.689Z,18.73
2018-11-02T21:00:45.902Z,19.00
2018-11-02T21:03:14.118Z,17.53
2018-11-02T21:05:42.441Z,18.10
2018-11-02T21:08:10.779Z,18.17
2018-11-02T21:10:38.830Z,21.53
2018-11-02T21:13:07.045Z,18.23
2018-11-02T21:15:35.193Z,18.10
2018-11-02T21:18:03.350Z,19.70
2018-11-02T21:20:31.612Z,18.87
2018-11-02T21:22:59.790Z,19.40
2018-11-02T21:25:27.977Z,20.10
2018-11-02T21:27:56.166Z,23.13
2018-11-02T21:30:25.536Z,20.93
2018-11-02T21:32:54.385Z,20.30
2018-11-02T21:35:23.111Z,23.60
2018-11-02T21:37:51.385Z,21.43
2018-11-02T21:40:20.855Z,20.17
2018-11-02T21:42:49.847Z,20.93
2018-11-02T21:45:19.377Z,20.10
2018-11-02T21:47:47.786Z,21.63
2018-11-02T21:50:16.474Z,22.33
2018-11-02T21:52:44.629Z,21.97
2018-11-02T21:55:13.193Z,22.63
2018-11-02T21:57:41.400Z,21.07
2018-11-02T22:00:11.922Z,20.93
2018-11-02T22:02:40.202Z,23.17
2018-11-02T22:05:09.599Z,22.90
2018-11-02T22:07:37.746Z,23.40
2018-11-02T22:10:07.227Z,22.77
2018-11-02T22:12:35.447Z,15.80
2018-11-02T22:15:03.724Z,20.83
2018-11-02T22:17:31.953Z,21.73
2018-11-02T22:20:00.181Z,21.10
2018-11-02T22:22:28.418Z,20.40
2018-11-02T22:24:56.734Z,21.43
2018-11-02T22:27:24.912Z,18.77
2018-11-02T22:29:53.079Z,18.90
2018-11-02T22:32:21.243Z,19.57
2018-11-02T22:34:49.406Z,17.83
2018-11-02T22:37:17.624Z,18.57
2018-11-02T22:39:45.875Z,17.97
2018-11-02T22:42:14.979Z,19.70
2018-11-02T22:44:43.257Z,19.03
2018-11-02T22:47:11.621Z,19.93
2018-11-02T22:49:39.753Z,31.87
2018-11-02T22:52:07.935Z,18.97
2018-11-02T22:54:36.077Z,17.40
2018-11-02T22:57:04.249Z,17.93
2018-11-02T22:59:32.387Z,18.17
2018-11-02T23:02:01.319Z,16.00
2018-11-02T23:04:29.583Z,17.97
2018-11-02T23:06:57.789Z,16.07
2018-11-02T23:09:25.983Z,15.90
2018-11-02T23:11:54.219Z,15.63
2018-11-02T23:14:22.370Z,15.43
2018-11-02T23:16:50.579Z,14.03
2018-11-02T23:19:18.855Z,14.47
2018-11-02T23:21:46.956Z,15.03
2018-11-02T23:24:15.378Z,15.67
2018-11-02T23:26:43.562Z,16.80
2018-11-02T23:29:11.747Z,15.93
2018-11-02T23:31:39.975Z,16.57
2018-11-02T23:34:08.209Z,19.17
2018-11-02T23:36:36.417Z,17.90
2018-11-02T23:39:06.110Z,17.77
2018-11-02T23:41:34.385Z,16.10
2018-11-02T23:44:02.561Z,19.70
2018-11-02T23:46:30.759Z,15.93
2018-11-02T23:48:58.918Z,17.47
2018-11-02T23:51:27.099Z,19.33
2018-11-02T23:53:55.415Z,19.57
2018-11-02T23:56:23.581Z,16.77
2018-11-02T23:58:51.770Z,18.40
